createdAt,value
2018-12-01T00:00:49.616Z,91.85
2018-12-01T00:01:49.614Z,91.96
2018-12-01T00:02:49.601Z,91.85
2018-12-01T00:03:49.583Z,92.16
2018-12-01T00:04:49.633Z,92.27
2018-12-01T00:05:49.567Z,92.27
2018-12-01T00:06:49.557Z,92.06
2018-12-01T00:07:49.558Z,92.06
2018-12-01T00:08:49.527Z,91.96
2018-12-01T00:09:49.545Z,92.06
2018-12-01T00:10:49.510Z,91.85
2018-12-01T00:11:49.506Z,92.27
2018-12-01T00:12:49.502Z,92.47
2018-12-01T00:13:49.477Z,92.16
2018-12-01T00:14:49.488Z,91.96
2018-12-01T00:15:49.477Z,92.16
2018-12-01T00:16:49.482Z,92.37
2018-12-01T00:17:49.449Z,92.58
2018-12-01T00:18:49.448Z,92.69
2018-12-01T00:19:49.435Z,92.79
2018-12-01T00:20:49.456Z,92.47
2018-12-01T00:21:49.400Z,92.37
2018-12-01T00:22:49.384Z,92.27
2018-12-01T00:23:49.375Z,92.37
2018-12-01T00:24:49.372Z,92.37
2018-12-01T00:25:49.369Z,92.58
2018-12-01T00:26:49.390Z,92.47
2018-12-01T00:27:49.340Z,92.69
2018-12-01T00:28:49.327Z,92.37
2018-12-01T00:29:49.316Z,92.58
2018-12-01T00:30:49.307Z,91.91
2018-12-01T00:31:49.290Z,91.85
2018-12-01T00:32:49.291Z,92.16
2018-12-01T00:33:49.277Z,92.75
2018-12-01T00:34:49.294Z,92.54
2018-12-01T00:35:49.254Z,92.58
2018-12-01T00:36:49.236Z,92.47
2018-12-01T00:37:49.248Z,92.47
2018-12-01T00:38:49.259Z,92.65
2018-12-01T00:39:49.246Z,92.33
2018-12-01T00:40:49.221Z,92.54
2018-12-01T00:41:49.197Z,92.47
2018-12-01T00:42:49.241Z,92.75
2018-12-01T00:43:49.222Z,92.58
2018-12-01T00:44:49.154Z,92.12
2018-12-01T00:45:49.165Z,92.22
2018-12-01T00:46:49.142Z,92.44
2018-12-01T00:47:49.157Z,92.65
2018-12-01T00:48:49.152Z,92.33
2018-12-01T00:49:49.124Z,92.16
2018-12-01T00:50:49.101Z,92.22
2018-12-01T00:51:49.102Z,92.79
2018-12-01T00:52:49.104Z,92.54
2018-12-01T00:53:49.093Z,92.69
2018-12-01T00:54:49.057Z,92.54
2018-12-01T00:55:49.086Z,92.54
2018-12-01T00:56:49.062Z,92.85
2018-12-01T00:57:49.045Z,92.85
2018-12-01T00:58:49.037Z,92.54
2018-12-01T00:59:49.031Z,93.27
2018-12-01T01:00:48.999Z,92.44
2018-12-01T01:01:49.063Z,93.27
2018-12-01T01:02:48.998Z,92.85
2018-12-01T01:03:48.951Z,92.58
2018-12-01T01:04:49.348Z,93.21
2018-12-01T01:05:48.964Z,92.90
2018-12-01T01:06:48.976Z,93.06
2018-12-01T01:07:48.946Z,92.85
2018-12-01T01:08:48.923Z,92.54
2018-12-01T01:09:48.901Z,92.65
2018-12-01T01:10:48.919Z,92.75
2018-12-01T01:13:06.340Z,93.16
2018-12-01T01:14:14.369Z,92.85
2018-12-01T01:15:06.306Z,92.22
2018-12-01T01:16:15.712Z,92.54
2018-12-01T01:17:15.718Z,92.33
2018-12-01T01:18:06.262Z,92.75
2018-12-01T01:19:06.258Z,92.33
2018-12-01T01:20:06.249Z,92.22
2018-12-01T01:21:06.236Z,92.54
2018-12-01T01:22:06.233Z,92.85
2018-12-01T01:23:06.249Z,92.54
2018-12-01T01:24:06.184Z,92.22
2018-12-01T01:25:06.178Z,92.44
2018-12-01T01:26:06.189Z,92.22
2018-12-01T01:27:16.188Z,92.54
2018-12-01T01:28:06.179Z,93.06
2018-12-01T01:29:06.186Z,92.54
2018-12-01T01:30:06.690Z,92.54
2018-12-01T01:31:06.196Z,92.12
2018-12-01T01:32:06.192Z,92.44
2018-12-01T01:33:06.261Z,92.54
2018-12-01T01:34:06.224Z,92.96
2018-12-01T01:35:06.180Z,92.44
2018-12-01T01:36:06.123Z,92.65
2018-12-01T01:37:06.297Z,92.54
2018-12-01T01:38:06.109Z,92.44
2018-12-01T01:39:06.148Z,92.54
2018-12-01T01:40:06.100Z,92.85
2018-12-01T01:41:06.108Z,93.06
2018-12-01T01:42:06.071Z,92.96
2018-12-01T01:43:06.074Z,93.16
2018-12-01T01:44:06.088Z,92.75
2018-12-01T01:45:06.129Z,92.75
2018-12-01T01:46:05.998Z,92.65
2018-12-01T01:47:06.076Z,93.06
2018-12-01T01:48:06.034Z,92.96
2018-12-01T01:49:06.073Z,93.16
2018-12-01T01:50:06.094Z,93.16
2018-12-01T01:51:05.950Z,92.96
2018-12-01T01:52:06.011Z,92.75
2018-12-01T01:53:05.974Z,92.65
2018-12-01T01:54:06.025Z,92.91
2018-12-01T01:55:05.986Z,93.06
2018-12-01T01:56:05.928Z,93.16
2018-12-01T01:57:05.992Z,92.75
2018-12-01T01:58:05.930Z,93.06
2018-12-01T01:59:06.694Z,93.16
2018-12-01T02:00:05.984Z,93.27
2018-12-01T02:01:05.980Z,93.37
2018-12-01T02:02:05.920Z,93.37
2018-12-01T02:03:05.906Z,93.59
2018-12-01T02:04:05.870Z,93.27
2018-12-01T02:05:05.834Z,92.81
2018-12-01T02:06:05.829Z,92.96
2018-12-01T02:07:05.825Z,92.65
2018-12-01T02:08:06.018Z,92.65
2018-12-01T02:09:05.822Z,93.27
2018-12-01T02:10:05.743Z,93.48
2018-12-01T02:11:05.812Z,93.16
2018-12-01T02:12:05.948Z,92.54
2018-12-01T02:13:05.790Z,92.96
2018-12-01T02:14:14.811Z,92.85
2018-12-01T02:15:05.725Z,92.75
2018-12-01T02:16:05.685Z,92.85
2018-12-01T02:17:05.693Z,92.85
2018-12-01T02:18:05.671Z,92.85
2018-12-01T02:19:05.773Z,92.60
2018-12-01T02:20:05.667Z,92.85
2018-12-01T02:21:05.630Z,92.85
2018-12-01T02:22:15.814Z,92.85
2018-12-01T02:23:14.833Z,92.75
2018-12-01T02:24:05.575Z,92.75
2018-12-01T02:25:05.560Z,93.16
2018-12-01T02:26:05.565Z,93.06
2018-12-01T02:27:05.546Z,93.23
2018-12-01T02:28:05.546Z,93.27
2018-12-01T02:29:05.562Z,93.59
2018-12-01T02:30:05.522Z,93.16
2018-12-01T02:31:05.533Z,93.16
2018-12-01T02:32:05.518Z,93.48
2018-12-01T02:33:05.485Z,93.37
2018-12-01T02:34:05.507Z,93.59
2018-12-01T02:35:05.476Z,93.59
2018-12-01T02:36:05.470Z,94.10
2018-12-01T02:37:05.449Z,93.90
2018-12-01T02:38:05.482Z,93.48
2018-12-01T02:39:05.435Z,93.79
2018-12-01T02:40:05.431Z,93.79
2018-12-01T02:41:05.480Z,93.69
2018-12-01T02:42:05.402Z,93.48
2018-12-01T02:43:05.429Z,93.69
2018-12-01T02:44:05.383Z,93.48
2018-12-01T02:45:05.373Z,93.27
2018-12-01T02:46:05.354Z,93.23
2018-12-01T02:47:14.893Z,93.37
2018-12-01T02:48:05.341Z,93.69
2018-12-01T02:49:14.418Z,93.90
2018-12-01T02:50:05.310Z,93.65
2018-12-01T02:51:05.310Z,93.79
2018-12-01T02:52:14.954Z,94.00
2018-12-01T02:53:16.470Z,94.10
2018-12-01T02:54:05.280Z,94.10
2018-12-01T02:55:05.267Z,94.10
2018-12-01T02:56:05.262Z,94.00
2018-12-01T02:57:05.285Z,94.10
2018-12-01T02:58:05.224Z,94.31
2018-12-01T02:59:05.223Z,94.21
2018-12-01T03:00:05.215Z,94.42
2018-12-01T03:01:05.198Z,94.52
2018-12-01T03:02:05.178Z,93.90
2018-12-01T03:03:14.015Z,94.21
2018-12-01T03:04:05.161Z,94.21
2018-12-01T03:05:05.168Z,94.42
2018-12-01T03:06:05.159Z,94.52
2018-12-01T03:07:05.132Z,94.52
2018-12-01T03:08:05.128Z,94.31
2018-12-01T03:09:05.133Z,94.42
2018-12-01T03:10:05.166Z,94.31
2018-12-01T03:11:05.090Z,94.21
2018-12-01T03:12:05.097Z,94.42
2018-12-01T03:13:05.108Z,94.42
2018-12-01T03:14:05.109Z,94.42
2018-12-01T03:15:05.194Z,94.42
2018-12-01T03:16:05.070Z,94.42
2018-12-01T03:17:05.049Z,94.84
2018-12-01T03:18:05.038Z,94.73
2018-12-01T03:19:05.043Z,94.94
2018-12-01T03:20:05.082Z,94.73
2018-12-01T03:21:05.032Z,94.94
2018-12-01T03:22:05.004Z,94.94
2018-12-01T03:23:05.009Z,95.04
2018-12-01T03:24:04.975Z,95.25
2018-12-01T03:25:04.986Z,95.46
2018-12-01T03:26:04.960Z,95.31
2018-12-01T03:27:04.954Z,94.84
2018-12-01T03:28:04.975Z,95.46
2018-12-01T03:29:05.070Z,95.36
2018-12-01T03:30:04.931Z,94.94
2018-12-01T03:31:04.909Z,94.73
2018-12-01T03:32:04.920Z,94.94
2018-12-01T03:33:04.905Z,95.36
2018-12-01T03:34:04.996Z,94.94
2018-12-01T03:35:04.900Z,94.79
2018-12-01T03:36:04.865Z,95.21
2018-12-01T03:37:04.854Z,95.10
2018-12-01T03:38:04.859Z,94.90
2018-12-01T03:39:04.821Z,94.69
2018-12-01T03:40:04.827Z,95.10
2018-12-01T03:41:04.832Z,94.94
2018-12-01T03:42:04.791Z,94.84
2018-12-01T03:43:04.810Z,94.69
2018-12-01T03:44:04.767Z,95.25
2018-12-01T03:45:04.778Z,95.10
2018-12-01T03:46:04.771Z,95.21
2018-12-01T03:47:04.756Z,95.46
2018-12-01T03:48:04.750Z,95.46
2018-12-01T03:49:04.733Z,95.25
2018-12-01T03:50:04.720Z,95.31
2018-12-01T03:51:04.728Z,95.31
2018-12-01T03:52:04.717Z,95.52
2018-12-01T03:53:04.685Z,95.46
2018-12-01T03:54:04.676Z,94.94
2018-12-01T03:55:04.657Z,95.10
2018-12-01T03:56:04.645Z,95.36
2018-12-01T03:57:04.650Z,95.36
2018-12-01T03:58:04.635Z,94.94
2018-12-01T03:59:04.637Z,95.00
2018-12-01T04:00:04.615Z,95.15
2018-12-01T04:01:04.591Z,94.90
2018-12-01T04:02:04.614Z,95.73
2018-12-01T04:03:04.687Z,95.78
2018-12-01T04:04:04.615Z,95.67
2018-12-01T04:05:04.574Z,95.15
2018-12-01T04:06:04.559Z,95.46
2018-12-01T04:07:04.553Z,95.00
2018-12-01T04:08:04.524Z,94.94
2018-12-01T04:09:04.537Z,95.52
2018-12-01T04:10:04.505Z,94.79
2018-12-01T04:11:04.519Z,94.79
2018-12-01T04:12:04.518Z,95.36
2018-12-01T04:13:04.470Z,95.36
2018-12-01T04:14:04.477Z,95.56
2018-12-01T04:15:04.460Z,95.04
2018-12-01T04:16:04.455Z,95.36
2018-12-01T04:17:04.475Z,95.56
2018-12-01T04:18:04.438Z,95.78
2018-12-01T04:19:04.439Z,95.78
2018-12-01T04:20:04.430Z,95.78
2018-12-01T04:21:04.399Z,95.73
2018-12-01T04:22:04.387Z,95.88
2018-12-01T04:23:04.395Z,95.62
2018-12-01T04:24:04.364Z,95.88
2018-12-01T04:25:04.346Z,95.62
2018-12-01T04:26:04.345Z,95.88
2018-12-01T04:27:04.380Z,95.88
2018-12-01T04:28:04.394Z,95.73
2018-12-01T04:29:04.348Z,95.73
2018-12-01T04:30:04.326Z,95.52
2018-12-01T04:31:04.289Z,95.78
2018-12-01T04:32:04.283Z,95.67
2018-12-01T04:33:04.280Z,96.25
2018-12-01T04:34:04.295Z,95.46
2018-12-01T04:35:04.259Z,96.09
2018-12-01T04:36:04.238Z,95.94
2018-12-01T04:37:04.225Z,95.62
2018-12-01T04:38:04.218Z,96.15
2018-12-01T04:40:21.599Z,96.46
2018-12-01T04:41:21.603Z,96.15
2018-12-01T04:42:21.565Z,96.15
2018-12-01T04:43:21.593Z,95.52
2018-12-01T04:44:21.545Z,95.73
2018-12-01T04:45:21.536Z,95.94
2018-12-01T04:46:21.551Z,95.94
2018-12-01T04:47:21.506Z,96.15
2018-12-01T04:48:30.995Z,95.83
2018-12-01T04:49:21.499Z,95.83
2018-12-01T04:50:21.497Z,95.94
2018-12-01T04:51:21.463Z,96.04
2018-12-01T04:52:21.446Z,96.04
2018-12-01T04:53:21.474Z,95.21
2018-12-01T04:54:21.476Z,95.83
2018-12-01T04:55:21.444Z,95.83
2018-12-01T04:56:21.415Z,95.83
2018-12-01T04:57:21.408Z,95.83
2018-12-01T04:58:21.438Z,95.73
2018-12-01T04:59:21.389Z,95.73
2018-12-01T05:00:21.380Z,95.94
2018-12-01T05:01:21.366Z,95.73
2018-12-01T05:02:21.361Z,95.31
2018-12-01T05:03:21.387Z,95.52
2018-12-01T05:04:21.399Z,95.10
2018-12-01T05:05:21.346Z,95.10
2018-12-01T05:06:21.357Z,96.36
2018-12-01T05:07:21.319Z,95.52
2018-12-01T05:08:21.309Z,95.10
2018-12-01T05:09:21.272Z,95.73
2018-12-01T05:10:21.288Z,94.90
2018-12-01T05:11:21.273Z,96.25
2018-12-01T05:12:21.259Z,95.00
2018-12-01T05:13:21.243Z,95.10
2018-12-01T05:14:21.272Z,95.00
2018-12-01T05:15:21.220Z,95.00
2018-12-01T05:16:21.217Z,94.79
2018-12-01T05:17:21.212Z,96.15
2018-12-01T05:18:21.215Z,94.96
2018-12-01T05:19:21.227Z,95.52
2018-12-01T05:20:21.180Z,96.04
2018-12-01T05:21:21.197Z,95.42
2018-12-01T05:22:21.189Z,95.10
2018-12-01T05:23:21.232Z,94.90
2018-12-01T05:24:21.151Z,95.10
2018-12-01T05:25:21.152Z,95.00
2018-12-01T05:26:21.134Z,94.90
2018-12-01T05:27:21.892Z,95.21
2018-12-01T05:28:21.099Z,95.31
2018-12-01T05:29:21.131Z,96.36
2018-12-01T05:30:21.083Z,94.85
2018-12-01T05:31:21.085Z,95.06
2018-12-01T05:32:21.075Z,96.21
2018-12-01T05:33:21.067Z,95.27
2018-12-01T05:34:21.028Z,96.15
2018-12-01T05:35:21.010Z,95.27
2018-12-01T05:36:21.036Z,95.06
2018-12-01T05:37:21.012Z,94.64
2018-12-01T05:38:21.069Z,95.06
2018-12-01T05:39:21.117Z,96.31
2018-12-01T05:40:21.011Z,95.06
2018-12-01T05:41:21.024Z,96.42
2018-12-01T05:42:20.998Z,95.06
2018-12-01T05:43:20.984Z,94.85
2018-12-01T05:44:20.961Z,94.75
2018-12-01T05:45:20.939Z,94.64
2018-12-01T05:46:20.929Z,95.17
2018-12-01T05:47:20.945Z,95.48
2018-12-01T05:48:20.920Z,95.48
2018-12-01T05:49:20.925Z,95.58
2018-12-01T05:50:20.937Z,95.79
2018-12-01T05:51:20.871Z,95.68
2018-12-01T05:52:20.844Z,95.79
2018-12-01T05:53:20.884Z,95.68
2018-12-01T05:54:20.877Z,95.68
2018-12-01T05:55:20.836Z,95.68
2018-12-01T05:56:20.806Z,95.48
2018-12-01T05:57:20.813Z,95.79
2018-12-01T05:58:20.797Z,95.79
2018-12-01T05:59:20.866Z,95.68
2018-12-01T06:00:20.761Z,95.68
2018-12-01T06:01:20.760Z,96.00
2018-12-01T06:02:20.754Z,96.00
2018-12-01T06:03:21.394Z,96.00
2018-12-01T06:04:20.787Z,95.85
2018-12-01T06:05:20.807Z,95.68
2018-12-01T06:06:20.718Z,95.48
2018-12-01T06:07:20.703Z,95.48
2018-12-01T06:08:20.679Z,95.43
2018-12-01T06:09:20.712Z,95.48
2018-12-01T06:10:20.811Z,94.64
2018-12-01T06:11:20.701Z,95.68
2018-12-01T06:12:20.681Z,95.27
2018-12-01T06:13:20.638Z,95.64
2018-12-01T06:14:20.702Z,95.79
2018-12-01T06:15:20.663Z,95.68
2018-12-01T06:16:20.653Z,95.43
2018-12-01T06:17:20.621Z,95.68
2018-12-01T06:18:20.578Z,95.68
2018-12-01T06:19:20.602Z,95.23
2018-12-01T06:20:20.600Z,95.37
2018-12-01T06:21:20.580Z,95.33
2018-12-01T06:22:20.549Z,94.96
2018-12-01T06:23:20.670Z,95.48
2018-12-01T06:24:20.518Z,96.00
2018-12-01T06:25:20.593Z,95.89
2018-12-01T06:26:20.517Z,95.89
2018-12-01T06:27:20.499Z,96.04
2018-12-01T06:28:20.497Z,96.36
2018-12-01T06:29:20.486Z,96.36
2018-12-01T06:30:20.462Z,96.94
2018-12-01T06:31:20.555Z,96.88
2018-12-01T06:32:20.497Z,96.46
2018-12-01T06:33:20.436Z,96.56
2018-12-01T06:34:20.411Z,96.62
2018-12-01T06:35:20.426Z,96.52
2018-12-01T06:36:20.410Z,96.94
2018-12-01T06:37:20.427Z,96.83
2018-12-01T06:38:20.438Z,96.73
2018-12-01T06:39:20.366Z,96.31
2018-12-01T06:40:20.372Z,96.52
2018-12-01T06:41:20.447Z,96.31
2018-12-01T06:42:20.369Z,96.52
2018-12-01T06:43:20.431Z,96.42
2018-12-01T06:44:20.331Z,96.58
2018-12-01T06:45:20.320Z,96.48
2018-12-01T06:46:20.289Z,96.73
2018-12-01T06:47:20.282Z,96.89
2018-12-01T06:48:20.317Z,96.48
2018-12-01T06:49:20.271Z,96.06
2018-12-01T06:50:20.265Z,95.85
2018-12-01T06:51:20.250Z,96.16
2018-12-01T06:52:20.228Z,96.06
2018-12-01T06:53:20.250Z,96.26
2018-12-01T06:54:20.227Z,96.06
2018-12-01T06:55:20.186Z,96.48
2018-12-01T06:56:20.204Z,96.06
2018-12-01T06:57:20.178Z,95.39
2018-12-01T06:58:20.161Z,95.60
2018-12-01T06:59:20.205Z,95.64
2018-12-01T07:00:20.169Z,95.70
2018-12-01T07:01:20.132Z,95.81
2018-12-01T07:02:20.167Z,95.81
2018-12-01T07:03:20.154Z,95.39
2018-12-01T07:04:20.145Z,95.50
2018-12-01T07:05:20.133Z,95.29
2018-12-01T07:06:20.130Z,94.66
2018-12-01T07:07:20.062Z,95.29
2018-12-01T07:08:20.054Z,95.50
2018-12-01T07:09:20.069Z,95.35
2018-12-01T07:10:20.063Z,95.08
2018-12-01T07:11:20.164Z,95.66
2018-12-01T07:12:20.078Z,95.14
2018-12-01T07:13:20.099Z,95.25
2018-12-01T07:14:20.900Z,95.66
2018-12-01T07:15:20.063Z,95.45
2018-12-01T07:16:19.991Z,95.14
2018-12-01T07:17:20.065Z,95.14
2018-12-01T07:18:20.033Z,94.93
2018-12-01T07:19:19.986Z,94.93
2018-12-01T07:20:20.027Z,95.25
2018-12-01T07:21:19.954Z,95.03
2018-12-01T07:22:19.954Z,95.03
2018-12-01T07:23:19.949Z,95.03
2018-12-01T07:24:19.963Z,95.03
2018-12-01T07:25:20.031Z,95.25
2018-12-01T07:26:19.868Z,95.25
2018-12-01T07:27:19.906Z,95.14
2018-12-01T07:28:19.860Z,94.62
2018-12-01T07:29:19.878Z,94.62
2018-12-01T07:30:19.879Z,94.47
2018-12-01T07:31:19.851Z,94.93
2018-12-01T07:32:19.837Z,94.68
2018-12-01T07:33:19.821Z,94.78
2018-12-01T07:34:19.793Z,94.47
2018-12-01T07:35:19.769Z,94.37
2018-12-01T07:36:19.752Z,94.37
2018-12-01T07:37:19.766Z,94.16
2018-12-01T07:38:19.815Z,93.85
2018-12-01T07:39:19.751Z,94.06
2018-12-01T07:40:19.763Z,93.85
2018-12-01T07:41:19.727Z,94.26
2018-12-01T07:42:19.716Z,94.16
2018-12-01T07:43:19.727Z,94.06
2018-12-01T07:44:19.787Z,93.85
2018-12-01T07:45:19.728Z,93.95
2018-12-01T07:46:19.664Z,93.85
2018-12-01T07:47:19.664Z,93.95
2018-12-01T07:48:19.656Z,94.26
2018-12-01T07:49:19.638Z,94.12
2018-12-01T07:50:19.617Z,94.12
2018-12-01T07:51:19.618Z,93.60
2018-12-01T07:52:19.609Z,94.01
2018-12-01T07:53:19.629Z,93.60
2018-12-01T07:54:19.578Z,93.70
2018-12-01T07:55:19.566Z,93.80
2018-12-01T07:56:19.564Z,94.01
2018-12-01T07:57:19.566Z,93.70
2018-12-01T07:58:19.555Z,93.60
2018-12-01T07:59:19.540Z,93.49
2018-12-01T08:00:19.530Z,93.39
2018-12-01T08:01:19.516Z,93.49
2018-12-01T08:02:19.483Z,93.70
2018-12-01T08:03:19.499Z,93.66
2018-12-01T08:04:19.513Z,93.66
2018-12-01T08:05:19.483Z,93.55
2018-12-01T08:06:19.509Z,93.45
2018-12-01T08:07:19.465Z,93.45
2018-12-01T08:08:19.480Z,93.24
2018-12-01T08:09:19.427Z,93.35
2018-12-01T08:10:19.442Z,93.14
2018-12-01T08:11:19.405Z,93.24
2018-12-01T08:12:19.386Z,93.45
2018-12-01T08:13:19.398Z,93.66
2018-12-01T08:14:19.378Z,93.24
2018-12-01T08:15:19.380Z,93.45
2018-12-01T08:16:19.413Z,92.30
2018-12-01T08:17:19.356Z,92.82
2018-12-01T08:18:19.328Z,92.78
2018-12-01T08:19:19.342Z,92.26
2018-12-01T08:20:19.288Z,92.47
2018-12-01T08:21:19.308Z,92.47
2018-12-01T08:22:19.316Z,92.36
2018-12-01T08:23:19.337Z,92.16
2018-12-01T08:24:19.258Z,92.78
2018-12-01T08:25:19.271Z,92.26
2018-12-01T08:26:19.317Z,92.26
2018-12-01T08:27:19.253Z,92.36
2018-12-01T08:28:19.236Z,92.68
2018-12-01T08:29:19.274Z,92.36
2018-12-01T08:30:19.233Z,93.20
2018-12-01T08:31:19.211Z,93.35
2018-12-01T08:32:19.206Z,93.45
2018-12-01T08:33:19.254Z,93.03
2018-12-01T08:34:19.312Z,93.66
2018-12-01T08:35:19.245Z,93.55
2018-12-01T08:36:19.155Z,94.28
2018-12-01T08:37:19.244Z,94.12
2018-12-01T08:38:19.189Z,93.97
2018-12-01T08:39:19.171Z,94.18
2018-12-01T08:40:19.111Z,93.87
2018-12-01T08:41:19.126Z,93.97
2018-12-01T08:42:19.068Z,93.45
2018-12-01T08:43:19.231Z,94.28
2018-12-01T08:44:19.073Z,94.18
2018-12-01T08:45:19.055Z,94.28
2018-12-01T08:46:19.064Z,93.87
2018-12-01T08:47:19.020Z,93.97
2018-12-01T08:48:19.442Z,94.03
2018-12-01T08:49:19.040Z,94.13
2018-12-01T08:50:19.000Z,93.51
2018-12-01T08:51:19.004Z,93.93
2018-12-01T08:52:18.983Z,93.51
2018-12-01T08:53:18.998Z,93.93
2018-12-01T08:54:18.968Z,93.72
2018-12-01T08:55:18.950Z,93.62
2018-12-01T08:56:18.970Z,93.72
2018-12-01T08:57:18.970Z,93.30
2018-12-01T08:58:18.938Z,93.57
2018-12-01T08:59:29.354Z,93.68
2018-12-01T09:00:29.308Z,93.26
2018-12-01T09:01:29.294Z,93.47
2018-12-01T09:02:29.400Z,93.53
2018-12-01T09:03:29.272Z,92.49
2018-12-01T09:04:29.310Z,91.97
2018-12-01T09:05:29.284Z,91.76
2018-12-01T09:06:29.238Z,91.62
2018-12-01T09:07:29.234Z,91.52
2018-12-01T09:08:29.222Z,91.72
2018-12-01T09:09:29.205Z,91.31
2018-12-01T09:10:29.201Z,90.95
2018-12-01T09:11:29.188Z,90.79
2018-12-01T09:12:29.180Z,90.79
2018-12-01T09:13:29.334Z,91.31
2018-12-01T09:14:29.177Z,91.27
2018-12-01T09:15:29.185Z,91.31
2018-12-01T09:16:29.127Z,90.44
2018-12-01T09:17:29.140Z,90.33
2018-12-01T09:18:29.125Z,90.02
2018-12-01T09:19:29.138Z,90.50
2018-12-01T09:20:29.197Z,90.08
2018-12-01T09:21:29.101Z,89.25
2018-12-01T09:22:29.098Z,89.77
2018-12-01T09:23:29.211Z,89.36
2018-12-01T09:24:29.172Z,89.46
2018-12-01T09:25:29.057Z,89.25
2018-12-01T09:26:29.059Z,89.36
2018-12-01T09:27:29.116Z,89.36
2018-12-01T09:28:29.039Z,89.67
2018-12-01T09:29:29.074Z,89.36
2018-12-01T09:30:29.029Z,89.36
2018-12-01T09:31:29.053Z,89.11
2018-12-01T09:32:28.998Z,89.11
2018-12-01T09:33:29.021Z,88.76
2018-12-01T09:34:28.955Z,87.57
2018-12-01T09:35:28.988Z,87.16
2018-12-01T09:36:29.009Z,87.82
2018-12-01T09:37:28.988Z,87.06
2018-12-01T09:38:28.960Z,87.10
2018-12-01T09:39:28.953Z,87.72
2018-12-01T09:40:28.902Z,87.62
2018-12-01T09:41:28.881Z,87.88
2018-12-01T09:42:28.907Z,87.68
2018-12-01T09:43:28.909Z,87.93
2018-12-01T09:44:28.864Z,88.13
2018-12-01T09:45:28.869Z,88.24
2018-12-01T09:46:28.803Z,88.55
2018-12-01T09:47:28.832Z,87.99
2018-12-01T09:48:28.813Z,88.20
2018-12-01T09:49:29.344Z,88.03
2018-12-01T09:50:28.818Z,87.88
2018-12-01T09:51:28.810Z,88.20
2018-12-01T09:52:28.783Z,87.78
2018-12-01T09:53:28.848Z,88.24
2018-12-01T09:54:28.814Z,87.57
2018-12-01T09:55:28.829Z,87.88
2018-12-01T09:56:28.746Z,87.16
2018-12-01T09:57:28.711Z,87.27
2018-12-01T09:58:28.698Z,87.12
2018-12-01T09:59:28.722Z,87.37
2018-12-01T10:00:28.723Z,87.06
2018-12-01T10:01:29.579Z,86.50
2018-12-01T10:02:28.690Z,86.50
2018-12-01T10:03:28.620Z,86.40
2018-12-01T10:04:28.703Z,86.40
2018-12-01T10:05:28.671Z,86.50
2018-12-01T10:06:28.617Z,86.71
2018-12-01T10:07:28.587Z,88.12
2018-12-01T10:08:28.587Z,86.98
2018-12-01T10:09:28.573Z,86.46
2018-12-01T10:10:28.586Z,85.84
2018-12-01T10:11:28.568Z,85.49
2018-12-01T10:12:28.557Z,85.60
2018-12-01T10:13:28.536Z,85.42
2018-12-01T10:14:28.526Z,85.53
2018-12-01T10:15:28.531Z,85.63
2018-12-01T10:16:28.875Z,85.53
2018-12-01T10:17:28.569Z,85.49
2018-12-01T10:18:28.509Z,85.49
2018-12-01T10:19:28.482Z,85.60
2018-12-01T10:20:28.496Z,85.49
2018-12-01T10:21:28.447Z,85.70
2018-12-01T10:22:28.442Z,85.63
2018-12-01T10:23:28.444Z,85.53
2018-12-01T10:24:28.420Z,85.22
2018-12-01T10:25:28.429Z,84.97
2018-12-01T10:26:28.599Z,85.39
2018-12-01T10:27:29.590Z,85.35
2018-12-01T10:28:28.375Z,85.35
2018-12-01T10:29:28.368Z,85.14
2018-12-01T10:30:28.388Z,84.63
2018-12-01T10:31:28.385Z,84.94
2018-12-01T10:32:28.692Z,84.63
2018-12-01T10:33:28.422Z,84.83
2018-12-01T10:34:28.432Z,84.73
2018-12-01T10:35:28.316Z,84.17
2018-12-01T10:36:29.023Z,83.55
2018-12-01T10:37:28.274Z,83.86
2018-12-01T10:38:28.301Z,83.86
2018-12-01T10:39:28.270Z,83.76
2018-12-01T10:40:28.264Z,83.34
2018-12-01T10:41:28.265Z,83.31
2018-12-01T10:42:28.244Z,83.06
2018-12-01T10:43:28.549Z,82.75
2018-12-01T10:44:28.265Z,83.17
2018-12-01T10:45:28.205Z,82.86
2018-12-01T10:46:28.206Z,82.34
2018-12-01T10:47:28.202Z,82.24
2018-12-01T10:48:28.222Z,82.24
2018-12-01T10:49:28.199Z,82.20
2018-12-01T10:50:28.150Z,82.24
2018-12-01T10:51:28.152Z,82.34
2018-12-01T10:52:28.118Z,82.34
2018-12-01T10:53:28.149Z,82.34
2018-12-01T10:54:28.094Z,82.30
2018-12-01T10:55:28.310Z,81.93
2018-12-01T10:56:28.090Z,82.24
2018-12-01T10:57:28.077Z,82.55
2018-12-01T10:58:28.068Z,82.55
2018-12-01T10:59:28.043Z,83.06
2018-12-01T11:00:28.314Z,82.86
2018-12-01T11:01:28.138Z,82.65
2018-12-01T11:02:28.020Z,83.27
2018-12-01T11:03:28.074Z,82.40
2018-12-01T11:04:28.000Z,82.61
2018-12-01T11:05:28.046Z,82.61
2018-12-01T11:06:27.962Z,82.61
2018-12-01T11:07:28.580Z,82.51
2018-12-01T11:08:27.986Z,82.16
2018-12-01T11:09:28.041Z,82.06
2018-12-01T11:10:28.008Z,81.96
2018-12-01T11:11:27.983Z,82.16
2018-12-01T11:12:27.910Z,82.47
2018-12-01T11:13:27.882Z,81.34
2018-12-01T11:14:27.878Z,81.09
2018-12-01T11:15:27.892Z,80.89
2018-12-01T11:16:27.879Z,80.89
2018-12-01T11:17:27.870Z,81.34
2018-12-01T11:18:27.848Z,82.16
2018-12-01T11:19:27.862Z,81.89
2018-12-01T11:20:27.839Z,82.40
2018-12-01T11:21:27.837Z,82.92
2018-12-01T11:22:27.842Z,83.03
2018-12-01T11:23:27.802Z,83.03
2018-12-01T11:24:27.866Z,83.68
2018-12-01T11:25:27.800Z,84.09
2018-12-01T11:26:27.835Z,84.20
2018-12-01T11:27:27.773Z,84.09
2018-12-01T11:28:27.792Z,84.30
2018-12-01T11:29:27.823Z,83.64
2018-12-01T11:30:27.776Z,83.64
2018-12-01T11:31:27.821Z,82.92
2018-12-01T11:32:27.689Z,82.37
2018-12-01T11:33:27.742Z,82.06
2018-12-01T11:34:27.687Z,82.16
2018-12-01T11:35:27.807Z,81.85
2018-12-01T11:36:27.649Z,82.06
2018-12-01T11:37:27.701Z,81.81
2018-12-01T11:38:27.664Z,82.02
2018-12-01T11:39:27.636Z,82.43
2018-12-01T11:40:27.666Z,81.20
2018-12-01T11:41:27.616Z,81.20
2018-12-01T11:42:27.630Z,81.30
2018-12-01T11:43:28.479Z,80.89
2018-12-01T11:44:27.565Z,80.68
2018-12-01T11:45:27.560Z,81.40
2018-12-01T11:46:27.562Z,81.20
2018-12-01T11:47:27.537Z,81.13
2018-12-01T11:48:27.513Z,81.44
2018-12-01T11:49:27.520Z,82.26
2018-12-01T11:50:27.602Z,82.37
2018-12-01T11:51:27.548Z,81.54
2018-12-01T11:52:27.493Z,81.34
2018-12-01T11:53:27.517Z,81.09
2018-12-01T11:54:27.461Z,80.82
2018-12-01T11:55:27.447Z,80.93
2018-12-01T11:56:27.454Z,80.79
2018-12-01T11:57:27.421Z,81.20
2018-12-01T11:58:27.441Z,81.34
2018-12-01T11:59:27.424Z,82.16
2018-12-01T12:00:27.394Z,82.06
2018-12-01T12:01:27.376Z,81.75
2018-12-01T12:02:27.441Z,82.16
2018-12-01T12:03:27.547Z,81.99
2018-12-01T12:04:27.396Z,82.30
2018-12-01T12:05:27.333Z,82.30
2018-12-01T12:06:27.321Z,82.71
2018-12-01T12:07:27.299Z,82.51
2018-12-01T12:08:27.311Z,82.57
2018-12-01T12:09:27.290Z,82.37
2018-12-01T12:10:27.302Z,82.37
2018-12-01T12:11:27.290Z,82.40
2018-12-01T12:12:27.244Z,82.37
2018-12-01T12:13:27.303Z,82.51
2018-12-01T12:14:27.244Z,82.37
2018-12-01T12:15:27.446Z,82.71
2018-12-01T12:16:27.240Z,82.57
2018-12-01T12:17:27.222Z,82.61
2018-12-01T12:18:27.237Z,82.71
2018-12-01T12:19:27.468Z,82.61
2018-12-01T12:20:27.195Z,82.51
2018-12-01T12:21:27.306Z,82.68
2018-12-01T12:22:28.090Z,82.78
2018-12-01T12:23:27.191Z,82.26
2018-12-01T12:24:27.194Z,82.02
2018-12-01T12:25:27.115Z,82.23
2018-12-01T12:26:27.146Z,81.85
2018-12-01T12:27:27.269Z,82.37
2018-12-01T12:28:27.099Z,81.09
2018-12-01T12:29:27.076Z,82.26
2018-12-01T12:30:27.116Z,82.06
2018-12-01T12:31:27.124Z,82.16
2018-12-01T12:32:27.129Z,82.20
2018-12-01T12:33:27.071Z,82.57
2018-12-01T12:34:27.034Z,82.82
2018-12-01T12:35:27.003Z,82.68
2018-12-01T12:36:27.050Z,82.57
2018-12-01T12:37:26.992Z,82.68
2018-12-01T12:38:27.040Z,82.37
2018-12-01T12:39:27.017Z,82.57
2018-12-01T12:40:27.103Z,82.89
2018-12-01T12:41:26.932Z,82.57
2018-12-01T12:42:26.988Z,82.57
2018-12-01T12:43:26.976Z,82.47
2018-12-01T12:44:26.919Z,82.57
2018-12-01T12:45:26.913Z,82.54
2018-12-01T12:46:26.935Z,82.78
2018-12-01T12:47:26.956Z,82.47
2018-12-01T12:48:26.881Z,82.74
2018-12-01T12:49:26.850Z,83.05
2018-12-01T12:50:27.596Z,82.43
2018-12-01T12:51:31.976Z,82.37
2018-12-01T12:52:26.821Z,82.64
2018-12-01T12:53:26.841Z,82.47
2018-12-01T12:54:27.027Z,82.54
2018-12-01T12:55:26.817Z,82.43